sensor_id;sensor_type;location;lat;lon;timestamp;pressure;altitude;pressure_sealevel;temperature
11926;BMP180;6022;48.768;18.608;2023-10-08T00:01:22;98354.03;;;17.63
11926;BMP180;6022;48.768;18.608;2023-10-08T00:03:51;98341.63;;;17.59
11926;BMP180;6022;48.768;18.608;2023-10-08T00:06:26;98351.09;;;17.58
11926;BMP180;6022;48.768;18.608;2023-10-08T00:08:55;98347.06;;;17.56
11926;BMP180;6022;48.768;18.608;2023-10-08T00:11:27;98339.50;;;17.54
11926;BMP180;6022;48.768;18.608;2023-10-08T00:13:59;98353.25;;;17.53
11926;BMP180;6022;48.768;18.608;2023-10-08T00:16:29;98346.53;;;17.52
11926;BMP180;6022;48.768;18.608;2023-10-08T00:18:57;98341.41;;;17.52
11926;BMP180;6022;48.768;18.608;2023-10-08T00:21:31;98339.09;;;17.49
11926;BMP180;6022;48.768;18.608;2023-10-08T00:24:01;98331.69;;;17.46
11926;BMP180;6022;48.768;18.608;2023-10-08T00:26:34;98338.16;;;17.50
11926;BMP180;6022;48.768;18.608;2023-10-08T00:29:05;98319.53;;;17.48
11926;BMP180;6022;48.768;18.608;2023-10-08T00:31:53;98329.50;;;17.51
11926;BMP180;6022;48.768;18.608;2023-10-08T00:34:25;98319.38;;;17.50
11926;BMP180;6022;48.768;18.608;2023-10-08T00:36:55;98316.81;;;17.50
11926;BMP180;6022;48.768;18.608;2023-10-08T00:39:24;98309.94;;;17.50
11926;BMP180;6022;48.768;18.608;2023-10-08T00:41:55;98315.06;;;17.50
11926;BMP180;6022;48.768;18.608;2023-10-08T00:44:28;98314.41;;;17.48
11926;BMP180;6022;48.768;18.608;2023-10-08T00:47:04;98308.31;;;17.49
11926;BMP180;6022;48.768;18.608;2023-10-08T00:49:33;98314.41;;;17.48
11926;BMP180;6022;48.768;18.608;2023-10-08T00:52:12;98308.63;;;17.46
11926;BMP180;6022;48.768;18.608;2023-10-08T00:54:42;98315.66;;;17.44
11926;BMP180;6022;48.768;18.608;2023-10-08T00:57:28;98319.81;;;17.45
11926;BMP180;6022;48.768;18.608;2023-10-08T01:00:07;98319.16;;;17.43
11926;BMP180;6022;48.768;18.608;2023-10-08T01:02:43;98318.47;;;17.41
11926;BMP180;6022;48.768;18.608;2023-10-08T01:05:16;98320.38;;;17.40
11926;BMP180;6022;48.768;18.608;2023-10-08T01:07:53;98304.34;;;17.38
11926;BMP180;6022;48.768;18.608;2023-10-08T01:10:23;98300.13;;;17.37
11926;BMP180;6022;48.768;18.608;2023-10-08T01:12:53;98291.78;;;17.35
11926;BMP180;6022;48.768;18.608;2023-10-08T01:15:32;98295.00;;;17.37
11926;BMP180;6022;48.768;18.608;2023-10-08T01:18:04;98289.09;;;17.36
11926;BMP180;6022;48.768;18.608;2023-10-08T01:20:43;98287.63;;;17.34
11926;BMP180;6022;48.768;18.608;2023-10-08T01:23:14;98292.09;;;17.32
11926;BMP180;6022;48.768;18.608;2023-10-08T01:25:48;98284.66;;;17.29
11926;BMP180;6022;48.768;18.608;2023-10-08T01:28:20;98274.53;;;17.27
11926;BMP180;6022;48.768;18.608;2023-10-08T01:30:59;98290.22;;;17.24
11926;BMP180;6022;48.768;18.608;2023-10-08T01:33:28;98288.47;;;17.25
11926;BMP180;6022;48.768;18.608;2023-10-08T01:36:04;98281.72;;;17.24
11926;BMP180;6022;48.768;18.608;2023-10-08T01:38:32;98270.50;;;17.25
11926;BMP180;6022;48.768;18.608;2023-10-08T01:41:01;98269.84;;;17.23
11926;BMP180;6022;48.768;18.608;2023-10-08T01:43:37;98283.31;;;17.25
11926;BMP180;6022;48.768;18.608;2023-10-08T01:46:06;98285.09;;;17.24
11926;BMP180;6022;48.768;18.608;2023-10-08T01:48:39;98274.84;;;17.24
11926;BMP180;6022;48.768;18.608;2023-10-08T01:51:09;98284.28;;;17.24
11926;BMP180;6022;48.768;18.608;2023-10-08T01:53:38;98282.53;;;17.24
11926;BMP180;6022;48.768;18.608;2023-10-08T01:56:08;98282.41;;;17.26
11926;BMP180;6022;48.768;18.608;2023-10-08T01:58:38;98267.28;;;17.23
11926;BMP180;6022;48.768;18.608;2023-10-08T02:01:06;98272.41;;;17.23
11926;BMP180;6022;48.768;18.608;2023-10-08T02:03:40;98270.13;;;17.20
11926;BMP180;6022;48.768;18.608;2023-10-08T02:06:12;98268.66;;;17.17
11926;BMP180;6022;48.768;18.608;2023-10-08T02:08:40;98267.84;;;17.17
11926;BMP180;6022;48.768;18.608;2023-10-08T02:11:10;98271.34;;;17.16
11926;BMP180;6022;48.768;18.608;2023-10-08T02:13:38;98263.66;;;17.16
11926;BMP180;6022;48.768;18.608;2023-10-08T02:16:07;98251.78;;;17.15
11926;BMP180;6022;48.768;18.608;2023-10-08T02:18:38;98247.56;;;17.14
11926;BMP180;6022;48.768;18.608;2023-10-08T02:21:07;98252.72;;;17.14
11926;BMP180;6022;48.768;18.608;2023-10-08T02:23:38;98254.47;;;17.13
11926;BMP180;6022;48.768;18.608;2023-10-08T02:26:06;98249.91;;;17.07
11926;BMP180;6022;48.768;18.608;2023-10-08T02:28:36;98248.41;;;17.05
11926;BMP180;6022;48.768;18.608;2023-10-08T02:31:06;98249.38;;;17.04
11926;BMP180;6022;48.768;18.608;2023-10-08T02:33:38;98252.06;;;17.02
11926;BMP180;6022;48.768;18.608;2023-10-08T02:36:06;98245.47;;;17.00
11926;BMP180;6022;48.768;18.608;2023-10-08T02:38:36;98246.41;;;16.99
11926;BMP180;6022;48.768;18.608;2023-10-08T02:41:05;98245.88;;;16.96
11926;BMP180;6022;48.768;18.608;2023-10-08T02:43:33;98244.72;;;16.90
11926;BMP180;6022;48.768;18.608;2023-10-08T02:46:04;98227.72;;;16.89
11926;BMP180;6022;48.768;18.608;2023-10-08T02:48:35;98232.19;;;16.87
11926;BMP180;6022;48.768;18.608;2023-10-08T02:51:03;98227.31;;;16.84
11926;BMP180;6022;48.768;18.608;2023-10-08T02:53:42;98222.63;;;16.80
11926;BMP180;6022;48.768;18.608;2023-10-08T02:56:11;98232.34;;;16.76
11926;BMP180;6022;48.768;18.608;2023-10-08T02:58:43;98229.78;;;16.76
11926;BMP180;6022;48.768;18.608;2023-10-08T03:01:14;98229.09;;;16.74
11926;BMP180;6022;48.768;18.608;2023-10-08T03:03:43;98230.88;;;16.74
11926;BMP180;6022;48.768;18.608;2023-10-08T03:06:11;98229.09;;;16.74
11926;BMP180;6022;48.768;18.608;2023-10-08T03:08:42;98223.97;;;16.74
11926;BMP180;6022;48.768;18.608;2023-10-08T03:11:11;98219.81;;;16.73
11926;BMP180;6022;48.768;18.608;2023-10-08T03:13:46;98214.03;;;16.71
11926;BMP180;6022;48.768;18.608;2023-10-08T03:16:13;98207.41;;;16.69
11926;BMP180;6022;48.768;18.608;2023-10-08T03:18:42;98207.56;;;16.67
11926;BMP180;6022;48.768;18.608;2023-10-08T03:21:18;98194.75;;;16.67
11926;BMP180;6022;48.768;18.608;2023-10-08T03:23:51;98194.59;;;16.69
11926;BMP180;6022;48.768;18.608;2023-10-08T03:26:24;98199.19;;;16.65
11926;BMP180;6022;48.768;18.608;2023-10-08T03:29:03;98215.94;;;16.60
11926;BMP180;6022;48.768;18.608;2023-10-08T03:31:43;98221.88;;;16.61
11926;BMP180;6022;48.768;18.608;2023-10-08T03:34:15;98223.78;;;16.59
11926;BMP180;6022;48.768;18.608;2023-10-08T03:36:42;98220.53;;;16.57
11926;BMP180;6022;48.768;18.608;2023-10-08T03:39:15;98214.59;;;16.56
11926;BMP180;6022;48.768;18.608;2023-10-08T03:41:45;98198.16;;;16.59
11926;BMP180;6022;48.768;18.608;2023-10-08T03:44:32;98196.53;;;16.58
11926;BMP180;6022;48.768;18.608;2023-10-08T03:46:59;98199.75;;;16.60
11926;BMP180;6022;48.768;18.608;2023-10-08T03:49:27;98182.78;;;16.59
11926;BMP180;6022;48.768;18.608;2023-10-08T03:51:59;98192.75;;;16.62
11926;BMP180;6022;48.768;18.608;2023-10-08T03:54:28;98197.88;;;16.62
11926;BMP180;6022;48.768;18.608;2023-10-08T03:57:03;98191.16;;;16.61
11926;BMP180;6022;48.768;18.608;2023-10-08T03:59:42;98199.50;;;16.63
11926;BMP180;6022;48.768;18.608;2023-10-08T04:02:10;98187.34;;;16.64
11926;BMP180;6022;48.768;18.608;2023-10-08T04:04:43;98205.28;;;16.64
11926;BMP180;6022;48.768;18.608;2023-10-08T04:07:26;98203.53;;;16.65
11926;BMP180;6022;48.768;18.608;2023-10-08T04:10:01;98205.94;;;16.66
11926;BMP180;6022;48.768;18.608;2023-10-08T04:12:39;98212.41;;;16.70
11926;BMP180;6022;48.768;18.608;2023-10-08T04:15:18;98204.59;;;16.72
11926;BMP180;6022;48.768;18.608;2023-10-08T04:17:47;98202.81;;;16.72
11926;BMP180;6022;48.768;18.608;2023-10-08T04:20:18;98193.38;;;16.73
11926;BMP180;6022;48.768;18.608;2023-10-08T04:23:05;98194.88;;;16.75
11926;BMP180;6022;48.768;18.608;2023-10-08T04:25:34;98194.56;;;16.78
11926;BMP180;6022;48.768;18.608;2023-10-08T04:28:03;98192.53;;;16.82
11926;BMP180;6022;48.768;18.608;2023-10-08T04:30:33;98186.50;;;16.83
11926;BMP180;6022;48.768;18.608;2023-10-08T04:33:03;98191.44;;;16.84
11926;BMP180;6022;48.768;18.608;2023-10-08T04:35:37;98191.44;;;16.84
11926;BMP180;6022;48.768;18.608;2023-10-08T04:38:20;98180.25;;;16.85
11926;BMP180;6022;48.768;18.608;2023-10-08T04:40:50;98172.72;;;16.84
11926;BMP180;6022;48.768;18.608;2023-10-08T04:43:26;98175.94;;;16.86
11926;BMP180;6022;48.768;18.608;2023-10-08T04:45:59;98166.50;;;16.86
11926;BMP180;6022;48.768;18.608;2023-10-08T04:48:31;98168.38;;;16.84
11926;BMP180;6022;48.768;18.608;2023-10-08T04:51:00;98180.25;;;16.85
11926;BMP180;6022;48.768;18.608;2023-10-08T04:53:33;98184.72;;;16.83
11926;BMP180;6022;48.768;18.608;2023-10-08T04:56:07;98184.06;;;16.81
11926;BMP180;6022;48.768;18.608;2023-10-08T04:58:41;98174.75;;;16.80
11926;BMP180;6022;48.768;18.608;2023-10-08T05:01:18;98183.25;;;16.81
11926;BMP180;6022;48.768;18.608;2023-10-08T05:03:50;98185.53;;;16.84
11926;BMP180;6022;48.768;18.608;2023-10-08T05:06:29;98183.94;;;16.83
11926;BMP180;6022;48.768;18.608;2023-10-08T05:09:11;98181.88;;;16.86
11926;BMP180;6022;48.768;18.608;2023-10-08T05:11:51;98181.88;;;16.86
11926;BMP180;6022;48.768;18.608;2023-10-08T05:14:22;98164.91;;;16.85
11926;BMP180;6022;48.768;18.608;2023-10-08T05:19:45;98158.53;;;16.89
11926;BMP180;6022;48.768;18.608;2023-10-08T05:22:29;98165.28;;;16.90
11926;BMP180;6022;48.768;18.608;2023-10-08T05:24:58;98179.69;;;16.91
11926;BMP180;6022;48.768;18.608;2023-10-08T05:27:46;98178.59;;;16.94
11926;BMP180;6022;48.768;18.608;2023-10-08T05:30:23;98155.41;;;16.95
11926;BMP180;6022;48.768;18.608;2023-10-08T05:33:21;98169.94;;;17.04
11926;BMP180;6022;48.768;18.608;2023-10-08T05:35:53;98167.22;;;17.05
11926;BMP180;6022;48.768;18.608;2023-10-08T05:38:37;98172.06;;;17.08
11926;BMP180;6022;48.768;18.608;2023-10-08T05:41:04;98186.06;;;17.14
11926;BMP180;6022;48.768;18.608;2023-10-08T05:43:36;98190.94;;;17.17
11926;BMP180;6022;48.768;18.608;2023-10-08T05:46:12;98182.56;;;17.15
11926;BMP180;6022;48.768;18.608;2023-10-08T05:48:57;98186.75;;;17.16
11926;BMP180;6022;48.768;18.608;2023-10-08T05:51:37;98178.91;;;17.17
11926;BMP180;6022;48.768;18.608;2023-10-08T05:54:19;98179.44;;;17.21
11926;BMP180;6022;48.768;18.608;2023-10-08T05:57:00;98186.44;;;17.28
11926;BMP180;6022;48.768;18.608;2023-10-08T05:59:48;98185.97;;;17.33
11926;BMP180;6022;48.768;18.608;2023-10-08T06:02:26;98184.38;;;17.32
11926;BMP180;6022;48.768;18.608;2023-10-08T06:05:03;98192.06;;;17.32
11926;BMP180;6022;48.768;18.608;2023-10-08T06:07:53;98194.91;;;17.29
11926;BMP180;6022;48.768;18.608;2023-10-08T06:10:31;98182.47;;;17.34
11926;BMP180;6022;48.768;18.608;2023-10-08T06:13:12;98175.97;;;17.39
11926;BMP180;6022;48.768;18.608;2023-10-08T06:16:12;98193.47;;;17.43
11926;BMP180;6022;48.768;18.608;2023-10-08T06:18:58;98208.22;;;17.41
11926;BMP180;6022;48.768;18.608;2023-10-08T06:21:27;98209.59;;;17.36
11926;BMP180;6022;48.768;18.608;2023-10-08T06:23:57;98220.81;;;17.35
11926;BMP180;6022;48.768;18.608;2023-10-08T06:26:26;98225.41;;;17.32
11926;BMP180;6022;48.768;18.608;2023-10-08T06:29:04;98230.81;;;17.29
11926;BMP180;6022;48.768;18.608;2023-10-08T06:31:46;98231.13;;;17.26
11926;BMP180;6022;48.768;18.608;2023-10-08T06:34:18;98223.25;;;17.27
11926;BMP180;6022;48.768;18.608;2023-10-08T06:36:50;98227.59;;;17.27
11926;BMP180;6022;48.768;18.608;2023-10-08T06:39:25;98219.91;;;17.27
11926;BMP180;6022;48.768;18.608;2023-10-08T06:42:04;98223.13;;;17.29
11926;BMP180;6022;48.768;18.608;2023-10-08T06:44:44;98224.09;;;17.28
11926;BMP180;6022;48.768;18.608;2023-10-08T06:47:14;98240.28;;;17.28
11926;BMP180;6022;48.768;18.608;2023-10-08T06:49:44;98231.91;;;17.26
11926;BMP180;6022;48.768;18.608;2023-10-08T06:52:11;98234.88;;;17.22
11926;BMP180;6022;48.768;18.608;2023-10-08T06:54:42;98243.81;;;17.18
11926;BMP180;6022;48.768;18.608;2023-10-08T06:57:09;98261.91;;;17.16
11926;BMP180;6022;48.768;18.608;2023-10-08T06:59:44;98300.38;;;17.07
11926;BMP180;6022;48.768;18.608;2023-10-08T07:02:16;98308.28;;;16.68
11926;BMP180;6022;48.768;18.608;2023-10-08T07:04:45;98309.22;;;16.48
11926;BMP180;6022;48.768;18.608;2023-10-08T07:07:17;98321.84;;;16.12
11926;BMP180;6022;48.768;18.608;2023-10-08T07:09:46;98327.13;;;15.62
11926;BMP180;6022;48.768;18.608;2023-10-08T07:12:15;98341.03;;;15.69
11926;BMP180;6022;48.768;18.608;2023-10-08T07:14:43;98350.03;;;15.64
11926;BMP180;6022;48.768;18.608;2023-10-08T07:17:14;98362.72;;;15.45
11926;BMP180;6022;48.768;18.608;2023-10-08T07:19:49;98384.34;;;15.32
11926;BMP180;6022;48.768;18.608;2023-10-08T07:22:26;98391.50;;;15.17
11926;BMP180;6022;48.768;18.608;2023-10-08T07:24:56;98399.19;;;15.07
11926;BMP180;6022;48.768;18.608;2023-10-08T07:27:25;98411.56;;;15.02
11926;BMP180;6022;48.768;18.608;2023-10-08T07:30:06;98433.25;;;14.76
11926;BMP180;6022;48.768;18.608;2023-10-08T07:32:40;98450.00;;;14.69
11926;BMP180;6022;48.768;18.608;2023-10-08T07:35:09;98444.66;;;14.72
11926;BMP180;6022;48.768;18.608;2023-10-08T07:38:09;98445.53;;;14.82
11926;BMP180;6022;48.768;18.608;2023-10-08T07:40:37;98453.88;;;14.84
11926;BMP180;6022;48.768;18.608;2023-10-08T07:43:04;98460.88;;;14.82
11926;BMP180;6022;48.768;18.608;2023-10-08T07:45:36;98477.75;;;14.73
11926;BMP180;6022;48.768;18.608;2023-10-08T07:48:04;98483.75;;;14.73
11926;BMP180;6022;48.768;18.608;2023-10-08T07:50:44;98497.91;;;14.76
11926;BMP180;6022;48.768;18.608;2023-10-08T07:53:13;98506.06;;;14.71
11926;BMP180;6022;48.768;18.608;2023-10-08T07:55:46;98518.84;;;14.60
11926;BMP180;6022;48.768;18.608;2023-10-08T07:58:15;98525.28;;;14.54
11926;BMP180;6022;48.768;18.608;2023-10-08T08:00:44;98545.22;;;14.49
11926;BMP180;6022;48.768;18.608;2023-10-08T08:03:36;98541.50;;;14.42
11926;BMP180;6022;48.768;18.608;2023-10-08T08:06:06;98545.69;;;14.43
11926;BMP180;6022;48.768;18.608;2023-10-08T08:08:36;98556.38;;;14.37
11926;BMP180;6022;48.768;18.608;2023-10-08T08:11:08;98553.00;;;14.37
11926;BMP180;6022;48.768;18.608;2023-10-08T08:13:45;98562.28;;;14.38
11926;BMP180;6022;48.768;18.608;2023-10-08T08:16:14;98555.31;;;14.29
11926;BMP180;6022;48.768;18.608;2023-10-08T08:18:52;98542.44;;;14.41
11926;BMP180;6022;48.768;18.608;2023-10-08T08:21:23;98553.13;;;14.36
11926;BMP180;6022;48.768;18.608;2023-10-08T08:23:50;98548.13;;;14.45
11926;BMP180;6022;48.768;18.608;2023-10-08T08:26:23;98557.28;;;14.58
11926;BMP180;6022;48.768;18.608;2023-10-08T08:28:59;98555.63;;;14.68
11926;BMP180;6022;48.768;18.608;2023-10-08T08:31:29;98545.63;;;14.87
11926;BMP180;6022;48.768;18.608;2023-10-08T08:34:03;98542.47;;;14.83
11926;BMP180;6022;48.768;18.608;2023-10-08T08:36:37;98545.88;;;14.73
11926;BMP180;6022;48.768;18.608;2023-10-08T08:39:18;98559.38;;;14.64
11926;BMP180;6022;48.768;18.608;2023-10-08T08:42:04;98560.44;;;14.51
11926;BMP180;6022;48.768;18.608;2023-10-08T08:44:35;98553.31;;;14.65
11926;BMP180;6022;48.768;18.608;2023-10-08T08:47:07;98580.47;;;14.77
11926;BMP180;6022;48.768;18.608;2023-10-08T08:49:39;98589.53;;;14.81
11926;BMP180;6022;48.768;18.608;2023-10-08T08:52:10;98576.84;;;14.90
11926;BMP180;6022;48.768;18.608;2023-10-08T08:54:43;98580.47;;;14.77
11926;BMP180;6022;48.768;18.608;2023-10-08T08:57:11;98586.66;;;14.53
11926;BMP180;6022;48.768;18.608;2023-10-08T08:59:55;98589.66;;;14.36
11926;BMP180;6022;48.768;18.608;2023-10-08T09:02:25;98590.25;;;14.39
11926;BMP180;6022;48.768;18.608;2023-10-08T09:05:01;98611.13;;;14.55
11926;BMP180;6022;48.768;18.608;2023-10-08T09:08:04;98611.81;;;14.68
11926;BMP180;6022;48.768;18.608;2023-10-08T09:10:38;98618.56;;;14.58
11926;BMP180;6022;48.768;18.608;2023-10-08T09:13:22;98614.78;;;14.95
11926;BMP180;6022;48.768;18.608;2023-10-08T09:15:51;98623.16;;;15.18
11926;BMP180;6022;48.768;18.608;2023-10-08T09:18:24;98635.22;;;15.48
11926;BMP180;6022;48.768;18.608;2023-10-08T09:20:55;98632.81;;;15.46
11926;BMP180;6022;48.768;18.608;2023-10-08T09:23:24;98636.69;;;15.61
11926;BMP180;6022;48.768;18.608;2023-10-08T09:25:56;98631.25;;;15.86
11926;BMP180;6022;48.768;18.608;2023-10-08T09:28:31;98646.91;;;15.61
11926;BMP180;6022;48.768;18.608;2023-10-08T09:31:03;98661.91;;;15.23
11926;BMP180;6022;48.768;18.608;2023-10-08T09:33:33;98650.56;;;14.84
11926;BMP180;6022;48.768;18.608;2023-10-08T09:36:01;98655.66;;;14.95
11926;BMP180;6022;48.768;18.608;2023-10-08T09:38:33;98672.13;;;15.23
11926;BMP180;6022;48.768;18.608;2023-10-08T09:41:01;98684.59;;;15.17
11926;BMP180;6022;48.768;18.608;2023-10-08T09:43:31;98682.13;;;15.05
11926;BMP180;6022;48.768;18.608;2023-10-08T09:46:18;98693.44;;;15.13
11926;BMP180;6022;48.768;18.608;2023-10-08T09:48:52;98680.88;;;14.67
11926;BMP180;6022;48.768;18.608;2023-10-08T09:51:21;98697.00;;;15.11
11926;BMP180;6022;48.768;18.608;2023-10-08T09:54:10;98691.53;;;15.37
11926;BMP180;6022;48.768;18.608;2023-10-08T09:56:42;98684.75;;;15.78
11926;BMP180;6022;48.768;18.608;2023-10-08T09:59:14;98677.38;;;15.64
11926;BMP180;6022;48.768;18.608;2023-10-08T10:01:44;98688.31;;;15.55
11926;BMP180;6022;48.768;18.608;2023-10-08T10:04:23;98687.13;;;15.39
11926;BMP180;6022;48.768;18.608;2023-10-08T10:07:12;98702.13;;;15.94
11926;BMP180;6022;48.768;18.608;2023-10-08T10:09:44;98715.78;;;16.56
11926;BMP180;6022;48.768;18.608;2023-10-08T10:12:20;98722.22;;;16.30
11926;BMP180;6022;48.768;18.608;2023-10-08T10:14:57;98716.69;;;15.94
11926;BMP180;6022;48.768;18.608;2023-10-08T10:17:37;98728.34;;;16.38
11926;BMP180;6022;48.768;18.608;2023-10-08T10:20:08;98730.72;;;16.51
11926;BMP180;6022;48.768;18.608;2023-10-08T10:22:43;98735.66;;;16.43
11926;BMP180;6022;48.768;18.608;2023-10-08T10:25:16;98733.09;;;15.91
11926;BMP180;6022;48.768;18.608;2023-10-08T10:30:23;98736.09;;;15.54
11926;BMP180;6022;48.768;18.608;2023-10-08T10:32:55;98747.22;;;15.64
11926;BMP180;6022;48.768;18.608;2023-10-08T10:35:28;98745.53;;;15.54
11926;BMP180;6022;48.768;18.608;2023-10-08T10:37:57;98748.59;;;15.26
11926;BMP180;6022;48.768;18.608;2023-10-08T10:40:31;98745.56;;;15.32
11926;BMP180;6022;48.768;18.608;2023-10-08T10:43:10;98746.13;;;15.36
11926;BMP180;6022;48.768;18.608;2023-10-08T10:45:43;98761.31;;;15.59
11926;BMP180;6022;48.768;18.608;2023-10-08T10:48:11;98758.91;;;15.88
11926;BMP180;6022;48.768;18.608;2023-10-08T10:50:53;98754.09;;;15.64
11926;BMP180;6022;48.768;18.608;2023-10-08T10:53:40;98758.25;;;15.76
11926;BMP180;6022;48.768;18.608;2023-10-08T10:56:27;98770.13;;;15.77
11926;BMP180;6022;48.768;18.608;2023-10-08T10:59:02;98775.38;;;15.64
11926;BMP180;6022;48.768;18.608;2023-10-08T11:01:50;98788.09;;;15.44
11926;BMP180;6022;48.768;18.608;2023-10-08T11:04:33;98785.75;;;15.63
11926;BMP180;6022;48.768;18.608;2023-10-08T11:07:18;98791.84;;;15.82
11926;BMP180;6022;48.768;18.608;2023-10-08T11:09:48;98780.88;;;15.38
11926;BMP180;6022;48.768;18.608;2023-10-08T11:12:18;98798.19;;;15.46
11926;BMP180;6022;48.768;18.608;2023-10-08T11:15:05;98794.81;;;15.23
11926;BMP180;6022;48.768;18.608;2023-10-08T11:17:35;98796.25;;;15.27
11926;BMP180;6022;48.768;18.608;2023-10-08T11:20:27;98789.34;;;15.60
11926;BMP180;6022;48.768;18.608;2023-10-08T11:22:55;98801.78;;;15.54
11926;BMP180;6022;48.768;18.608;2023-10-08T11:25:24;98805.63;;;15.49
11926;BMP180;6022;48.768;18.608;2023-10-08T11:27:58;98799.94;;;15.98
11926;BMP180;6022;48.768;18.608;2023-10-08T11:30:33;98799.66;;;16.23
11926;BMP180;6022;48.768;18.608;2023-10-08T11:33:02;98802.34;;;16.41
11926;BMP180;6022;48.768;18.608;2023-10-08T11:35:34;98807.88;;;16.77
11926;BMP180;6022;48.768;18.608;2023-10-08T11:38:02;98812.13;;;16.88
11926;BMP180;6022;48.768;18.608;2023-10-08T11:40:31;98814.25;;;16.63
11926;BMP180;6022;48.768;18.608;2023-10-08T11:43:17;98808.75;;;16.47
11926;BMP180;6022;48.768;18.608;2023-10-08T11:45:44;98816.41;;;16.27
11926;BMP180;6022;48.768;18.608;2023-10-08T11:48:16;98817.50;;;16.02
11926;BMP180;6022;48.768;18.608;2023-10-08T11:50:58;98811.59;;;16.33
11926;BMP180;6022;48.768;18.608;2023-10-08T11:53:28;98818.31;;;16.65
11926;BMP180;6022;48.768;18.608;2023-10-08T11:55:56;98806.34;;;16.95
11926;BMP180;6022;48.768;18.608;2023-10-08T11:58:24;98815.56;;;16.77
11926;BMP180;6022;48.768;18.608;2023-10-08T12:01:07;98825.31;;;16.83
11926;BMP180;6022;48.768;18.608;2023-10-08T12:03:38;98825.75;;;16.88
11926;BMP180;6022;48.768;18.608;2023-10-08T12:06:07;98831.94;;;16.65
11926;BMP180;6022;48.768;18.608;2023-10-08T12:08:35;98824.00;;;16.68
11926;BMP180;6022;48.768;18.608;2023-10-08T12:11:06;98831.63;;;16.79
11926;BMP180;6022;48.768;18.608;2023-10-08T12:13:40;98838.16;;;16.52
11926;BMP180;6022;48.768;18.608;2023-10-08T12:16:16;98840.63;;;16.74
11926;BMP180;6022;48.768;18.608;2023-10-08T12:18:51;98838.63;;;17.18
11926;BMP180;6022;48.768;18.608;2023-10-08T12:21:27;98843.81;;;17.07
11926;BMP180;6022;48.768;18.608;2023-10-08T12:24:01;98841.88;;;16.79
11926;BMP180;6022;48.768;18.608;2023-10-08T12:26:32;98852.97;;;16.49
11926;BMP180;6022;48.768;18.608;2023-10-08T12:29:00;98847.00;;;16.59
11926;BMP180;6022;48.768;18.608;2023-10-08T12:31:28;98855.44;;;17.11
11926;BMP180;6022;48.768;18.608;2023-10-08T12:33:57;98847.13;;;16.98
11926;BMP180;6022;48.768;18.608;2023-10-08T12:36:27;98848.94;;;17.07
11926;BMP180;6022;48.768;18.608;2023-10-08T12:39:00;98845.69;;;17.25
11926;BMP180;6022;48.768;18.608;2023-10-08T12:41:35;98839.47;;;17.18
11926;BMP180;6022;48.768;18.608;2023-10-08T12:44:06;98847.47;;;17.34
11926;BMP180;6022;48.768;18.608;2023-10-08T12:46:36;98848.19;;;17.75
11926;BMP180;6022;48.768;18.608;2023-10-08T12:49:05;98850.38;;;17.50
11926;BMP180;6022;48.768;18.608;2023-10-08T12:51:35;98844.16;;;17.82
11926;BMP180;6022;48.768;18.608;2023-10-08T12:54:09;98834.41;;;17.85
11926;BMP180;6022;48.768;18.608;2023-10-08T12:56:49;98843.16;;;17.64
11926;BMP180;6022;48.768;18.608;2023-10-08T12:59:16;98832.44;;;18.08
11926;BMP180;6022;48.768;18.608;2023-10-08T13:01:53;98833.31;;;18.27
11926;BMP180;6022;48.768;18.608;2023-10-08T13:04:25;98839.47;;;18.06
11926;BMP180;6022;48.768;18.608;2023-10-08T13:06:59;98839.94;;;17.72
11926;BMP180;6022;48.768;18.608;2023-10-08T13:09:30;98849.81;;;17.85
11926;BMP180;6022;48.768;18.608;2023-10-08T13:11:59;98848.19;;;18.23
11926;BMP180;6022;48.768;18.608;2023-10-08T13:14:27;98847.03;;;17.98
11926;BMP180;6022;48.768;18.608;2023-10-08T13:16:57;98839.66;;;17.65
11926;BMP180;6022;48.768;18.608;2023-10-08T13:19:32;98845.03;;;17.62
11926;BMP180;6022;48.768;18.608;2023-10-08T13:22:02;98846.88;;;17.51
11926;BMP180;6022;48.768;18.608;2023-10-08T13:24:36;98850.25;;;17.51
11926;BMP180;6022;48.768;18.608;2023-10-08T13:27:09;98841.38;;;17.65
11926;BMP180;6022;48.768;18.608;2023-10-08T13:29:46;98852.22;;;17.39
11926;BMP180;6022;48.768;18.608;2023-10-08T13:32:14;98853.91;;;17.08
11926;BMP180;6022;48.768;18.608;2023-10-08T13:34:45;98856.13;;;17.13
11926;BMP180;6022;48.768;18.608;2023-10-08T13:37:17;98861.56;;;16.99
11926;BMP180;6022;48.768;18.608;2023-10-08T13:39:45;98869.88;;;17.12
11926;BMP180;6022;48.768;18.608;2023-10-08T13:42:14;98872.31;;;17.13
11926;BMP180;6022;48.768;18.608;2023-10-08T13:44:50;98872.69;;;17.09
11926;BMP180;6022;48.768;18.608;2023-10-08T13:47:20;98869.81;;;17.02
11926;BMP180;6022;48.768;18.608;2023-10-08T13:49:56;98868.16;;;16.92
11926;BMP180;6022;48.768;18.608;2023-10-08T13:52:26;98861.94;;;16.95
11926;BMP180;6022;48.768;18.608;2023-10-08T13:54:55;98867.09;;;16.63
11926;BMP180;6022;48.768;18.608;2023-10-08T13:57:24;98870.13;;;16.68
11926;BMP180;6022;48.768;18.608;2023-10-08T13:59:54;98865.41;;;16.53
11926;BMP180;6022;48.768;18.608;2023-10-08T14:02:24;98868.66;;;16.55
11926;BMP180;6022;48.768;18.608;2023-10-08T14:04:55;98876.84;;;16.49
11926;BMP180;6022;48.768;18.608;2023-10-08T14:07:26;98880.16;;;16.29
11926;BMP180;6022;48.768;18.608;2023-10-08T14:09:55;98874.81;;;16.32
11926;BMP180;6022;48.768;18.608;2023-10-08T14:12:23;98885.66;;;16.14
11926;BMP180;6022;48.768;18.608;2023-10-08T14:14:53;98891.59;;;16.26
11926;BMP180;6022;48.768;18.608;2023-10-08T14:17:22;98889.81;;;16.37
11926;BMP180;6022;48.768;18.608;2023-10-08T14:20:10;98890.53;;;16.17
11926;BMP180;6022;48.768;18.608;2023-10-08T14:22:44;98891.47;;;16.16
11926;BMP180;6022;48.768;18.608;2023-10-08T14:25:12;98901.50;;;16.19
11926;BMP180;6022;48.768;18.608;2023-10-08T14:27:57;98908.63;;;16.47
11926;BMP180;6022;48.768;18.608;2023-10-08T14:30:34;98911.13;;;16.68
11926;BMP180;6022;48.768;18.608;2023-10-08T14:33:08;98919.00;;;16.76
11926;BMP180;6022;48.768;18.608;2023-10-08T14:35:41;98917.47;;;16.54
11926;BMP180;6022;48.768;18.608;2023-10-08T14:38:28;98917.94;;;16.48
11926;BMP180;6022;48.768;18.608;2023-10-08T14:41:15;98916.66;;;16.53
11926;BMP180;6022;48.768;18.608;2023-10-08T14:44:02;98921.69;;;16.44
11926;BMP180;6022;48.768;18.608;2023-10-08T14:46:31;98927.38;;;16.47
11926;BMP180;6022;48.768;18.608;2023-10-08T14:49:02;98922.50;;;16.44
11926;BMP180;6022;48.768;18.608;2023-10-08T14:51:33;98923.47;;;16.32